Time;durP1;ratioP1;P1;durP2;ratioP2;P2;SDS_P1;SDS_P2;PMS_P1;PMS_P2;Temp;Humidity;BMP_temperature;BMP_pressure;BME280_temperature;BME280_humidity;BME280_pressure;Samples;Min_cycle;Max_cycle;Signal;HPM_P1;HPM_P2
2022/10/04 00:01:12;;;;;;;1.23;0.60;;;15.70;99.90;;;;;;4981562;28;20022;-72
2022/10/04 00:04:10;;;;;;;3.55;0.63;;;15.90;99.90;;;;;;4983205;28;20030;-72
2022/10/04 00:07:04;;;;;;;3.20;0.70;;;16.00;99.90;;;;;;4983139;28;20491;-72
2022/10/04 00:09:54;;;;;;;4.03;0.55;;;16.00;99.90;;;;;;4978000;28;20038;-71
2022/10/04 00:12:34;;;;;;;2.95;0.63;;;16.00;99.90;;;;;;4982824;28;20060;-69
2022/10/04 00:15:44;;;;;;;1.30;0.50;;;16.10;99.90;;;;;;4987399;28;20025;-69
2022/10/04 00:18:12;;;;;;;3.05;0.50;;;16.10;99.90;;;;;;4968377;28;20023;-71
2022/10/04 00:20:54;;;;;;;1.17;0.68;;;16.20;99.90;;;;;;4971717;28;20035;-70
2022/10/04 00:23:43;;;;;;;0.63;0.40;;;16.20;99.90;;;;;;4985094;28;20049;-71
2022/10/04 00:26:22;;;;;;;0.73;0.40;;;16.30;99.90;;;;;;4992814;28;20045;-71
2022/10/04 00:28:51;;;;;;;0.93;0.50;;;16.20;99.90;;;;;;4987003;28;20023;-71
2022/10/04 00:31:28;;;;;;;0.68;0.50;;;16.20;99.90;;;;;;4985482;28;20053;-71
2022/10/04 00:34:03;;;;;;;1.92;0.88;;;16.40;99.90;;;;;;4987496;28;20014;-69
2022/10/04 00:36:40;;;;;;;1.50;0.52;;;16.50;99.90;;;;;;4987275;28;20117;-71
2022/10/04 00:39:08;;;;;;;1.25;0.47;;;16.50;99.90;;;;;;4984416;28;20033;-71
2022/10/04 00:41:48;;;;;;;0.98;0.45;;;16.60;99.90;;;;;;4982774;28;20030;-71
2022/10/04 00:44:33;;;;;;;0.68;0.50;;;16.70;99.90;;;;;;4984441;28;20026;-70
2022/10/04 00:47:03;;;;;;;0.43;0.30;;;16.70;99.90;;;;;;4980683;28;20027;-71
2022/10/04 00:49:39;;;;;;;0.47;0.38;;;16.90;99.90;;;;;;4976800;28;20038;-71
2022/10/04 00:52:22;;;;;;;0.47;0.30;;;17.10;99.90;;;;;;4978847;28;20026;-70
2022/10/04 00:54:56;;;;;;;0.80;0.50;;;17.20;99.90;;;;;;4996186;28;20026;-70
2022/10/04 00:57:36;;;;;;;0.47;0.28;;;17.30;99.90;;;;;;4995933;28;20033;-71
2022/10/04 01:00:22;;;;;;;2.90;0.50;;;17.30;99.90;;;;;;4995898;28;20028;-72
2022/10/04 01:02:52;;;;;;;;;;;17.40;99.90;;;;;;4989456;28;20023;-72
2022/10/04 01:05:29;;;;;;;1.15;0.38;;;17.50;99.90;;;;;;4984618;28;19969;-69
2022/10/04 01:08:06;;;;;;;1.20;0.57;;;17.60;99.90;;;;;;4984842;28;20050;-71
2022/10/04 01:10:42;;;;;;;0.65;0.30;;;17.70;99.90;;;;;;4984436;28;20023;-69
2022/10/04 01:13:17;;;;;;;6.72;0.90;;;17.80;99.90;;;;;;4983999;28;20488;-71
2022/10/04 01:15:50;;;;;;;0.88;0.50;;;17.80;99.90;;;;;;4987907;28;20430;-68
2022/10/04 01:18:21;;;;;;;0.95;0.47;;;17.90;99.90;;;;;;4983313;28;20037;-71
2022/10/04 01:21:06;;;;;;;4.40;0.50;;;17.90;99.90;;;;;;4983225;28;20030;-70
2022/10/04 01:23:58;;;;;;;0.88;0.52;;;17.90;99.90;;;;;;4987346;28;20015;-69
2022/10/04 01:26:30;;;;;;;0.63;0.35;;;17.90;99.90;;;;;;4983391;28;20043;-69
2022/10/04 01:29:15;;;;;;;0.30;0.30;;;17.90;99.90;;;;;;4985656;28;20018;-69
2022/10/04 01:31:48;;;;;;;1.55;0.47;;;17.90;99.90;;;;;;4987010;28;20480;-70
2022/10/04 01:34:19;;;;;;;0.88;0.45;;;18.00;99.90;;;;;;4984868;28;20029;-69
2022/10/04 01:36:50;;;;;;;1.58;0.85;;;17.90;99.90;;;;;;4983910;28;20030;-70
2022/10/04 01:39:19;;;;;;;1.05;0.57;;;17.90;99.90;;;;;;4984296;28;20034;-70
2022/10/04 01:41:52;;;;;;;1.17;0.50;;;17.90;99.90;;;;;;4985936;28;20019;-70
2022/10/04 01:44:36;;;;;;;1.23;0.55;;;17.90;99.90;;;;;;4986156;28;20029;-71
2022/10/04 01:47:13;;;;;;;1.05;0.40;;;18.00;99.90;;;;;;4984205;28;20023;-69
2022/10/04 01:49:43;;;;;;;2.67;0.98;;;18.00;99.90;;;;;;4983979;28;20023;-69
2022/10/04 01:52:47;;;;;;;0.82;0.45;;;18.10;99.90;;;;;;4985135;28;20018;-70
2022/10/04 01:55:25;;;;;;;2.22;0.60;;;18.10;99.90;;;;;;4984043;28;20139;-69
2022/10/04 01:58:14;;;;;;;1.25;0.40;;;18.10;99.90;;;;;;4988008;28;20026;-70
2022/10/04 02:00:54;;;;;;;3.03;0.70;;;18.10;99.90;;;;;;4994476;28;20030;-69
2022/10/04 02:03:33;;;;;;;4.50;0.70;;;18.20;99.90;;;;;;4995366;28;20022;-69
2022/10/04 02:06:04;;;;;;;1.92;0.47;;;18.50;99.90;;;;;;4995055;28;20480;-70
2022/10/04 02:08:36;;;;;;;0.88;0.50;;;18.50;99.90;;;;;;4994622;28;20049;-70
2022/10/04 02:11:05;;;;;;;1.92;0.40;;;18.40;99.90;;;;;;4994850;28;20166;-70
2022/10/04 02:13:39;;;;;;;2.08;0.77;;;18.40;99.90;;;;;;4989147;28;20419;-71
2022/10/04 02:16:11;;;;;;;0.25;0.20;;;18.50;99.90;;;;;;4985627;28;20023;-70
2022/10/04 02:18:44;;;;;;;0.60;0.32;;;18.60;99.90;;;;;;4987250;28;20015;-70
2022/10/04 02:21:14;;;;;;;2.95;0.40;;;18.70;99.90;;;;;;4987913;28;20403;-70
2022/10/04 02:23:43;;;;;;;1.08;0.38;;;18.90;99.90;;;;;;4983947;28;20015;-72
2022/10/04 02:26:11;;;;;;;1.08;0.55;;;19.10;99.90;;;;;;4984201;28;20030;-71
2022/10/04 02:28:39;;;;;;;0.82;0.30;;;19.20;99.90;;;;;;4975041;28;20121;-66
2022/10/04 02:33:58;;;;;;;1.55;0.60;;;19.20;99.90;;;;;;4975324;28;20388;-70
2022/10/04 02:36:29;;;;;;;2.78;0.60;;;19.10;99.90;;;;;;4975303;28;20042;-71
2022/10/04 02:39:08;;;;;;;0.68;0.32;;;19.10;99.90;;;;;;4977391;28;20026;-74
2022/10/04 02:42:01;;;;;;;2.83;0.50;;;19.10;99.90;;;;;;4980980;28;20031;-71
2022/10/04 02:44:58;;;;;;;1.77;0.60;;;19.10;99.90;;;;;;4984053;28;20434;-75
2022/10/04 02:47:40;;;;;;;0.98;0.32;;;19.10;99.90;;;;;;4983463;28;20542;-75
2022/10/04 02:50:30;;;;;;;0.50;0.40;;;19.10;99.90;;;;;;4984446;28;20022;-71
2022/10/04 02:53:19;;;;;;;0.65;0.40;;;19.20;99.90;;;;;;4993942;28;20022;-72
2022/10/04 02:55:48;;;;;;;2.03;0.60;;;19.30;99.90;;;;;;4988462;28;20019;-73
2022/10/04 02:58:19;;;;;;;0.80;0.57;;;19.30;99.90;;;;;;4983893;28;20423;-71
2022/10/04 03:00:55;;;;;;;0.93;0.60;;;19.40;99.90;;;;;;4984781;28;20039;-76
2022/10/04 03:03:23;;;;;;;0.45;0.20;;;19.40;99.90;;;;;;4974974;28;20027;-78
2022/10/04 03:06:11;;;;;;;0.80;0.50;;;19.40;99.90;;;;;;4974974;28;20034;-77
2022/10/04 03:08:44;;;;;;;0.73;0.43;;;19.40;99.90;;;;;;4974227;28;20023;-76
2022/10/04 03:11:14;;;;;;;0.73;0.35;;;19.40;99.90;;;;;;4974498;28;20058;-75
2022/10/04 03:13:46;;;;;;;4.22;0.43;;;19.40;99.90;;;;;;4973662;28;20105;-75
2022/10/04 03:16:15;;;;;;;1.25;0.40;;;19.60;99.90;;;;;;4975010;28;20022;-71
2022/10/04 03:18:45;;;;;;;0.68;0.35;;;19.70;99.90;;;;;;4974492;28;20031;-74
2022/10/04 03:21:16;;;;;;;0.82;0.30;;;19.70;99.90;;;;;;4973876;28;20546;-76
2022/10/04 03:23:47;;;;;;;3.55;0.40;;;19.80;99.90;;;;;;4974666;28;20056;-77
2022/10/04 03:26:29;;;;;;;1.02;0.47;;;19.70;99.90;;;;;;4974739;28;20118;-77
2022/10/04 03:28:58;;;;;;;1.10;0.60;;;19.70;99.90;;;;;;4974402;28;20428;-73
2022/10/04 03:31:27;;;;;;;4.13;0.35;;;19.70;99.90;;;;;;4974395;28;20050;-77
2022/10/04 03:33:57;;;;;;;1.17;0.40;;;19.60;99.90;;;;;;4974475;28;20027;-79
2022/10/04 03:36:26;;;;;;;1.85;0.30;;;19.60;99.90;;;;;;4974483;28;20031;-76
2022/10/04 03:38:56;;;;;;;2.00;0.30;;;19.60;99.90;;;;;;4976344;28;20122;-77
2022/10/04 03:41:25;;;;;;;0.63;0.38;;;19.60;99.90;;;;;;4982771;28;20089;-77
2022/10/04 03:43:55;;;;;;;1.10;0.32;;;19.60;99.90;;;;;;4982502;28;20023;-74
2022/10/04 03:46:24;;;;;;;0.52;0.40;;;19.60;99.90;;;;;;4983794;28;20034;-75
2022/10/04 03:48:54;;;;;;;0.47;0.40;;;19.60;99.90;;;;;;4990837;28;20026;-72
2022/10/04 03:51:24;;;;;;;0.57;0.30;;;19.60;99.90;;;;;;4990439;28;20349;-74
2022/10/04 03:53:55;;;;;;;2.72;0.50;;;19.60;99.90;;;;;;4990936;28;20046;-74
2022/10/04 03:56:36;;;;;;;1.20;0.45;;;19.50;99.90;;;;;;4990945;28;20511;-78
2022/10/04 03:59:05;;;;;;;2.08;0.57;;;19.50;99.90;;;;;;4993781;28;20036;-70
2022/10/04 04:01:50;;;;;;;1.65;0.80;;;19.50;99.90;;;;;;4995649;28;20430;-79
2022/10/04 04:04:51;;;;;;;0.85;0.60;;;19.50;99.90;;;;;;4993710;28;20026;-74
2022/10/04 04:07:47;;;;;;;2.22;0.77;;;19.60;99.90;;;;;;4991601;28;20042;-75
2022/10/04 04:10:23;;;;;;;2.13;0.60;;;19.50;99.90;;;;;;4982165;28;20089;-73
2022/10/04 04:13:16;;;;;;;1.15;0.63;;;19.50;99.90;;;;;;4993679;28;20113;-74
2022/10/04 04:15:44;;;;;;;2.30;0.80;;;19.50;99.90;;;;;;4994221;28;20484;-77
2022/10/04 04:18:20;;;;;;;3.92;0.77;;;19.50;99.90;;;;;;4996685;28;20018;-76
2022/10/04 04:20:47;;;;;;;;;;;19.50;99.90;;;;;;4997914;28;20108;-78
2022/10/04 04:23:15;;;;;;;2.92;0.80;;;19.50;99.90;;;;;;4997515;28;19916;-74
2022/10/04 04:25:46;;;;;;;1.20;0.43;;;19.50;99.90;;;;;;4997372;28;20054;-77
2022/10/04 04:28:39;;;;;;;5.03;0.75;;;19.50;99.90;;;;;;4997225;28;20026;-75
2022/10/04 04:31:18;;;;;;;2.30;0.68;;;19.50;99.90;;;;;;4996985;28;20054;-70
2022/10/04 04:34:00;;;;;;;3.88;0.50;;;19.50;99.90;;;;;;4997622;28;20495;-70
2022/10/04 04:36:30;;;;;;;1.02;0.45;;;19.50;99.90;;;;;;4996977;28;20030;-73
2022/10/04 04:39:36;;;;;;;3.53;1.10;;;19.50;99.90;;;;;;4996906;28;20475;-74
2022/10/04 04:42:17;;;;;;;1.00;0.55;;;19.40;99.90;;;;;;4997150;28;20019;-78
2022/10/04 04:44:56;;;;;;;0.75;0.30;;;19.40;99.90;;;;;;4997047;28;20041;-75
2022/10/04 04:47:34;;;;;;;1.23;0.70;;;19.40;99.90;;;;;;4996934;28;20096;-72
2022/10/04 04:50:15;;;;;;;1.27;0.60;;;19.40;99.90;;;;;;4996804;28;20022;-77
2022/10/04 04:52:57;;;;;;;1.33;0.52;;;19.40;99.90;;;;;;4996924;28;20030;-76
2022/10/04 04:55:36;;;;;;;1.65;0.60;;;19.30;99.90;;;;;;4996698;28;20026;-77
2022/10/04 04:58:04;;;;;;;1.73;0.47;;;19.20;99.90;;;;;;4996703;28;20121;-75
2022/10/04 05:00:38;;;;;;;1.45;0.50;;;19.20;99.90;;;;;;4996674;28;20033;-70
2022/10/04 05:03:16;;;;;;;1.08;0.30;;;19.10;99.90;;;;;;4996758;28;20034;-78
2022/10/04 05:05:47;;;;;;;3.13;0.63;;;19.10;99.90;;;;;;4996748;28;20109;-69
2022/10/04 05:08:18;;;;;;;1.77;0.60;;;19.10;99.90;;;;;;4996592;28;20113;-69
2022/10/04 05:10:54;;;;;;;1.85;0.77;;;19.00;99.90;;;;;;4995355;28;20023;-69
2022/10/04 05:13:22;;;;;;;;;;;19.00;99.90;;;;;;4997129;28;20489;-69
2022/10/04 05:15:54;;;;;;;0.82;0.60;;;19.00;99.90;;;;;;4996251;28;19910;-69
2022/10/04 05:18:28;;;;;;;2.13;0.40;;;19.00;99.90;;;;;;4996353;28;20031;-71
2022/10/04 05:21:02;;;;;;;1.20;0.57;;;19.00;99.90;;;;;;4996380;28;20054;-73
2022/10/04 05:23:30;;;;;;;1.63;0.70;;;19.00;99.90;;;;;;4996239;28;20256;-69
2022/10/04 05:26:01;;;;;;;4.22;0.70;;;19.10;99.90;;;;;;4994819;28;20064;-74
2022/10/04 05:28:29;;;;;;;2.08;0.43;;;19.10;99.90;;;;;;4996138;28;20022;-70
2022/10/04 05:31:26;;;;;;;5.20;0.90;;;19.10;99.90;;;;;;4995684;28;20093;-75
2022/10/04 05:33:58;;;;;;;0.50;0.40;;;19.10;99.90;;;;;;4996194;28;20472;-72
2022/10/04 05:36:40;;;;;;;1.90;0.68;;;19.10;99.90;;;;;;4995878;28;20027;-71
2022/10/04 05:39:22;;;;;;;1.35;0.55;;;19.10;99.90;;;;;;4995916;28;20018;-72
2022/10/04 05:42:00;;;;;;;3.75;1.13;;;19.10;99.90;;;;;;4995965;28;20023;-77
2022/10/04 05:44:31;;;;;;;4.45;0.85;;;19.00;99.90;;;;;;4995802;28;20475;-72
2022/10/04 05:47:04;;;;;;;0.95;0.45;;;19.10;99.90;;;;;;4995615;28;20438;-71
2022/10/04 05:49:45;;;;;;;0.93;0.50;;;19.10;99.90;;;;;;4995683;28;20049;-71
2022/10/04 05:52:32;;;;;;;1.75;0.40;;;19.10;99.90;;;;;;4992678;28;20026;-72
2022/10/04 05:55:18;;;;;;;4.05;0.82;;;19.10;99.90;;;;;;4995231;28;20026;-69
2022/10/04 05:58:00;;;;;;;2.63;0.50;;;19.00;99.90;;;;;;4995373;28;20105;-73
2022/10/04 06:00:49;;;;;;;1.55;0.50;;;18.90;99.90;;;;;;4995650;28;20399;-69
2022/10/04 06:03:37;;;;;;;1.33;0.70;;;18.90;99.90;;;;;;4995386;28;20034;-72
2022/10/04 06:06:30;;;;;;;5.70;0.80;;;18.90;99.90;;;;;;4995687;28;20034;-72
2022/10/04 06:09:34;;;;;;;3.38;0.73;;;19.00;99.90;;;;;;4995445;28;20023;-72
2022/10/04 06:12:32;;;;;;;1.90;0.70;;;19.00;99.90;;;;;;4994764;28;20026;-74
2022/10/04 06:15:44;;;;;;;4.40;0.80;;;18.90;99.90;;;;;;4968305;28;20383;-74
2022/10/04 06:18:29;;;;;;;4.03;0.80;;;18.80;99.90;;;;;;4995285;28;20050;-72
2022/10/04 06:21:14;;;;;;;7.43;0.95;;;18.70;99.90;;;;;;4994736;28;20062;-70
2022/10/04 06:23:57;;;;;;;3.58;0.60;;;18.70;99.90;;;;;;4995220;28;20030;-74
2022/10/04 06:26:40;;;;;;;3.50;0.80;;;18.60;99.90;;;;;;4995040;28;20044;-72
2022/10/04 06:29:13;;;;;;;2.20;0.93;;;18.50;99.90;;;;;;4995019;28;20031;-73
2022/10/04 06:32:01;;;;;;;2.67;1.00;;;18.50;99.90;;;;;;4994717;28;20097;-73
2022/10/04 06:35:06;;;;;;;2.75;0.85;;;18.40;99.90;;;;;;4995115;28;20050;-79
2022/10/04 06:37:55;;;;;;;1.00;0.35;;;18.30;99.90;;;;;;4964500;28;20038;-75
2022/10/04 06:40:37;;;;;;;7.13;0.80;;;18.20;99.90;;;;;;4994867;28;20042;-74
2022/10/04 06:43:31;;;;;;;2.20;0.70;;;18.20;99.90;;;;;;4994187;28;20037;-71
2022/10/04 06:46:07;;;;;;;3.33;1.05;;;18.10;99.90;;;;;;4992857;28;20041;-71
2022/10/04 06:48:47;;;;;;;1.85;0.85;;;18.00;99.90;;;;;;4994527;28;20062;-67
2022/10/04 06:51:26;;;;;;;1.63;0.73;;;17.90;99.90;;;;;;4994154;28;20030;-74
2022/10/04 06:54:34;;;;;;;1.70;0.60;;;17.90;99.90;;;;;;4994353;28;20088;-67
2022/10/04 06:57:22;;;;;;;3.13;0.60;;;17.80;99.90;;;;;;4992213;28;20030;-69
2022/10/04 07:00:16;;;;;;;4.00;0.70;;;17.70;99.90;;;;;;4992285;28;20034;-69
2022/10/04 07:02:46;;;;;;;2.65;0.47;;;17.70;99.90;;;;;;4992690;28;20054;-75
2022/10/04 07:05:40;;;;;;;1.40;0.57;;;17.60;99.90;;;;;;4992274;28;20026;-72
2022/10/04 07:08:29;;;;;;;3.63;0.70;;;17.50;99.90;;;;;;4992287;28;20031;-67
2022/10/04 07:11:15;;;;;;;2.35;0.88;;;17.50;99.90;;;;;;4993446;28;20475;-69
2022/10/04 07:13:56;;;;;;;3.78;0.82;;;17.40;99.90;;;;;;4994305;28;20427;-65
2022/10/04 07:16:48;;;;;;;3.08;0.50;;;17.30;99.90;;;;;;4994175;28;20038;-68
2022/10/04 07:19:25;;;;;;;1.67;0.60;;;17.30;99.90;;;;;;4994858;28;20031;-72
2022/10/04 07:22:01;;;;;;;2.80;0.55;;;17.20;99.90;;;;;;4994491;28;20022;-71
2022/10/04 07:24:44;;;;;;;0.65;0.40;;;17.10;99.90;;;;;;4994172;28;20145;-69
2022/10/04 07:27:17;;;;;;;3.35;0.60;;;17.10;99.90;;;;;;4991512;28;20022;-67
2022/10/04 07:29:46;;;;;;;4.78;0.77;;;17.10;99.90;;;;;;4993292;28;20054;-73
2022/10/04 07:32:22;;;;;;;2.88;0.50;;;17.10;99.90;;;;;;4993449;28;20022;-65
2022/10/04 07:35:01;;;;;;;1.20;0.40;;;17.00;99.90;;;;;;4995102;28;20142;-65
2022/10/04 07:37:33;;;;;;;4.00;0.70;;;17.00;99.90;;;;;;4997301;28;20022;-71
2022/10/04 07:40:17;;;;;;;2.65;0.80;;;16.90;99.90;;;;;;5000110;28;20022;-73
2022/10/04 07:43:08;;;;;;;4.43;0.77;;;16.90;99.90;;;;;;4999323;28;20026;-64
2022/10/04 07:45:40;;;;;;;4.30;0.98;;;16.90;99.90;;;;;;4997906;28;20030;-65
2022/10/04 07:48:23;;;;;;;1.23;0.60;;;16.80;99.90;;;;;;4997327;28;20057;-71
2022/10/04 07:50:59;;;;;;;4.80;0.63;;;16.80;99.90;;;;;;4997242;28;20034;-64
2022/10/04 07:53:43;;;;;;;4.72;1.00;;;16.70;99.90;;;;;;4997021;28;20404;-73
2022/10/04 07:56:57;;;;;;;2.50;0.55;;;16.60;99.90;;;;;;4999124;28;20539;-64
2022/10/04 07:59:55;;;;;;;2.33;0.55;;;16.60;99.90;;;;;;4987521;28;20442;-66
2022/10/04 08:02:54;;;;;;;2.47;0.90;;;16.50;99.90;;;;;;4990221;28;20034;-68
2022/10/04 08:05:44;;;;;;;3.03;0.75;;;16.60;99.90;;;;;;4989910;28;20030;-69
2022/10/04 08:08:25;;;;;;;1.30;0.57;;;16.60;99.90;;;;;;4991044;28;20097;-65
2022/10/04 08:11:48;;;;;;;2.95;0.80;;;16.60;99.90;;;;;;4990785;28;20026;-71
2022/10/04 08:14:28;;;;;;;2.88;0.90;;;16.50;99.90;;;;;;4928430;29;20024;-75
2022/10/04 08:16:58;;;;;;;1.98;1.20;;;16.40;99.90;;;;;;4924748;29;20036;-72
2022/10/04 08:19:41;;;;;;;2.55;1.23;;;16.30;99.90;;;;;;4960287;28;20487;-74
2022/10/04 08:22:32;;;;;;;2.55;0.93;;;16.30;99.90;;;;;;4985226;28;20033;-68
2022/10/04 08:25:12;;;;;;;2.33;0.95;;;16.20;99.90;;;;;;4984740;28;20031;-72
2022/10/04 08:29:41;;;;;;;3.80;1.15;;;16.10;99.90;;;;;;4986698;28;20023;-70
2022/10/04 08:30:55;;;;;;;2.47;0.98;;;16.10;99.90;;;;;;4989759;28;20042;-71
2022/10/04 08:33:43;;;;;;;2.55;0.75;;;16.20;99.90;;;;;;4989621;28;20117;-69
2022/10/04 08:36:46;;;;;;;1.70;0.80;;;16.20;99.90;;;;;;4987734;28;20051;-70
2022/10/04 08:39:48;;;;;;;2.17;1.05;;;16.30;99.90;;;;;;4960139;28;20062;-70
2022/10/04 08:42:32;;;;;;;4.75;1.38;;;16.20;99.90;;;;;;4964717;28;20109;-70
2022/10/04 08:45:08;;;;;;;3.97;0.63;;;16.20;99.90;;;;;;4978953;28;20464;-70
2022/10/04 08:47:39;;;;;;;1.25;0.52;;;16.20;99.90;;;;;;4976837;28;20567;-70
2022/10/04 08:50:50;;;;;;;4.07;0.50;;;16.20;99.90;;;;;;4976103;28;20023;-70
2022/10/04 08:53:36;;;;;;;2.38;0.55;;;16.20;99.90;;;;;;4977270;28;20034;-71
2022/10/04 08:56:28;;;;;;;7.60;1.48;;;16.20;99.90;;;;;;4977255;28;20380;-71
2022/10/04 08:59:18;;;;;;;1.20;0.60;;;16.20;99.90;;;;;;4976877;28;20053;-70
2022/10/04 09:02:22;;;;;;;1.30;0.75;;;16.20;99.90;;;;;;4957622;28;20050;-71
2022/10/04 09:05:17;;;;;;;2.38;0.80;;;16.10;99.90;;;;;;4986968;28;20030;-72
2022/10/04 09:08:21;;;;;;;1.98;0.57;;;16.10;99.90;;;;;;4996600;28;20056;-72
2022/10/04 09:10:58;;;;;;;3.53;0.77;;;16.00;99.90;;;;;;4996804;28;20023;-74
2022/10/04 09:13:43;;;;;;;3.90;0.88;;;16.00;99.90;;;;;;4996209;28;20084;-68
2022/10/04 09:16:38;;;;;;;3.08;0.88;;;16.00;99.90;;;;;;4996465;28;20097;-70
2022/10/04 09:19:32;;;;;;;5.25;1.23;;;16.00;99.90;;;;;;4997934;28;20105;-77
2022/10/04 09:22:38;;;;;;;3.65;1.50;;;16.00;99.90;;;;;;4997104;28;20033;-78
2022/10/04 09:25:39;;;;;;;4.57;2.08;;;16.00;99.90;;;;;;5009766;28;20021;-70
2022/10/04 09:28:47;;;;;;;5.20;1.58;;;16.00;99.90;;;;;;5015398;28;20030;-70
2022/10/04 09:31:23;;;;;;;4.35;1.50;;;16.00;99.90;;;;;;4983218;28;20045;-69
2022/10/04 09:34:08;;;;;;;5.13;1.30;;;16.00;99.90;;;;;;5015203;28;20053;-68
2022/10/04 09:36:39;;;;;;;2.45;1.20;;;16.00;99.90;;;;;;5015248;28;20026;-71
2022/10/04 09:39:42;;;;;;;3.90;1.42;;;15.90;99.90;;;;;;4984166;28;20063;-66
2022/10/04 09:42:38;;;;;;;3.00;1.27;;;15.90;99.90;;;;;;5015007;28;20025;-68
2022/10/04 09:45:38;;;;;;;4.53;1.30;;;15.80;99.90;;;;;;5001518;28;20031;-73
2022/10/04 09:48:42;;;;;;;4.90;1.55;;;15.80;99.90;;;;;;4997316;28;20033;-68
2022/10/04 09:51:30;;;;;;;2.47;1.25;;;15.80;99.90;;;;;;4995079;28;20069;-77
2022/10/04 09:54:29;;;;;;;3.85;1.25;;;15.80;99.90;;;;;;4992754;28;20029;-69
2022/10/04 09:57:04;;;;;;;2.65;1.55;;;15.80;99.90;;;;;;4974560;28;20034;-71
2022/10/04 09:59:38;;;;;;;1.90;0.85;;;15.80;99.90;;;;;;4995277;28;20471;-69
2022/10/04 10:02:37;;;;;;;1.85;1.08;;;15.80;99.90;;;;;;5000422;28;20037;-69
2022/10/04 10:05:25;;;;;;;3.70;1.13;;;15.80;99.90;;;;;;5014597;28;20037;-74
2022/10/04 10:08:31;;;;;;;1.60;0.88;;;15.80;99.90;;;;;;5014930;28;20022;-68
2022/10/04 10:14:53;;;;;;;3.15;1.00;;;15.70;99.90;;;;;;4954441;29;20086;-71
2022/10/04 10:17:36;;;;;;;8.43;1.48;;;15.80;99.90;;;;;;5015021;28;20486;-71
2022/10/04 10:20:25;;;;;;;1.48;0.85;;;15.80;99.90;;;;;;5014785;28;20044;-70
2022/10/04 10:23:20;;;;;;;2.67;0.95;;;15.80;99.90;;;;;;5014543;28;20022;-69
2022/10/04 10:26:08;;;;;;;2.97;0.85;;;15.80;99.90;;;;;;5014651;28;20041;-69
2022/10/04 10:29:12;;;;;;;1.75;1.08;;;15.90;99.90;;;;;;5014554;28;20398;-69
2022/10/04 10:32:03;;;;;;;2.00;0.75;;;15.90;99.90;;;;;;4994583;28;20039;-71
2022/10/04 10:34:56;;;;;;;2.13;1.00;;;15.90;99.90;;;;;;4993401;28;20033;-69
2022/10/04 10:37:35;;;;;;;3.05;1.00;;;15.90;99.90;;;;;;4992640;28;20018;-70
2022/10/04 10:40:36;;;;;;;4.03;1.10;;;16.00;99.90;;;;;;4992461;28;20446;-65
2022/10/04 10:43:40;;;;;;;3.90;1.25;;;16.00;99.90;;;;;;4983616;28;20023;-63
2022/10/04 10:46:34;;;;;;;7.00;1.52;;;16.00;99.90;;;;;;4983587;28;20033;-76
2022/10/04 10:49:26;;;;;;;5.57;0.90;;;16.00;99.90;;;;;;4987676;28;20382;-70
2022/10/04 10:52:19;;;;;;;1.98;0.95;;;15.90;99.90;;;;;;4984525;28;20476;-75
2022/10/04 10:55:07;;;;;;;2.30;0.90;;;16.00;99.90;;;;;;4994424;28;20036;-69
2022/10/04 10:57:34;;;;;;;1.17;0.85;;;16.00;99.90;;;;;;4994345;28;20102;-72
2022/10/04 11:00:21;;;;;;;2.78;1.38;;;15.90;99.90;;;;;;4994422;28;20043;-73
2022/10/04 11:03:13;;;;;;;2.70;0.88;;;15.90;99.90;;;;;;4994481;28;20026;-64
2022/10/04 11:05:49;;;;;;;2.40;0.93;;;16.00;99.90;;;;;;4993872;28;20053;-62
2022/10/04 11:08:31;;;;;;;2.38;1.20;;;15.90;99.90;;;;;;4993427;28;20080;-65
2022/10/04 11:11:21;;;;;;;2.35;1.20;;;16.00;99.90;;;;;;4994180;28;20069;-64
2022/10/04 11:13:58;;;;;;;5.97;0.82;;;15.90;99.90;;;;;;4984996;28;20062;-64
2022/10/04 11:16:49;;;;;;;5.80;0.98;;;15.90;99.90;;;;;;4994210;28;20026;-66
2022/10/04 11:19:42;;;;;;;1.52;0.98;;;16.00;99.90;;;;;;4994718;28;20022;-63
2022/10/04 11:22:15;;;;;;;4.15;1.10;;;15.90;99.90;;;;;;4994975;28;20415;-71
2022/10/04 11:24:52;;;;;;;2.55;0.88;;;15.80;99.90;;;;;;4994003;28;20154;-69
2022/10/04 11:27:27;;;;;;;4.43;1.30;;;15.80;99.90;;;;;;4994079;28;20446;-62
2022/10/04 11:30:15;;;;;;;4.50;1.10;;;15.80;99.90;;;;;;4993604;28;20443;-67
2022/10/04 11:33:19;;;;;;;3.22;1.02;;;15.90;99.90;;;;;;4994470;28;20514;-63
2022/10/04 11:35:59;;;;;;;1.83;0.98;;;15.90;99.90;;;;;;4994052;28;20388;-63
2022/10/04 11:38:51;;;;;;;2.15;0.90;;;15.80;99.90;;;;;;4993993;28;20165;-65
2022/10/04 11:41:43;;;;;;;4.63;1.00;;;15.80;99.90;;;;;;4994379;28;20093;-65
2022/10/04 11:44:55;;;;;;;1.05;0.70;;;15.80;99.90;;;;;;4994053;28;20032;-66
2022/10/04 11:48:01;;;;;;;2.53;1.00;;;15.80;99.90;;;;;;4993264;28;20074;-66
2022/10/04 11:50:39;;;;;;;1.88;1.05;;;15.80;99.90;;;;;;4934326;29;20625;-66
2022/10/04 11:53:20;;;;;;;4.40;1.58;;;15.80;99.90;;;;;;4934143;29;20148;-64
2022/10/04 11:55:53;;;;;;;3.20;0.77;;;15.80;99.90;;;;;;4973311;28;20043;-66
2022/10/04 11:58:57;;;;;;;1.92;1.08;;;15.80;99.90;;;;;;4993976;28;20058;-64
2022/10/04 12:01:39;;;;;;;2.75;0.88;;;15.80;99.90;;;;;;4993677;28;20034;-65
2022/10/04 12:04:26;;;;;;;3.97;1.20;;;15.70;99.90;;;;;;4993961;28;20098;-65
2022/10/04 12:07:27;;;;;;;3.80;0.93;;;15.70;99.90;;;;;;4982484;28;20035;-65
2022/10/04 12:10:18;;;;;;;2.28;1.00;;;15.70;99.90;;;;;;4982884;28;20041;-65
2022/10/04 12:13:13;;;;;;;2.58;0.85;;;15.70;99.90;;;;;;4983299;28;20034;-67
2022/10/04 12:15:52;;;;;;;1.77;0.90;;;15.70;99.90;;;;;;4983073;28;20387;-67
2022/10/04 12:18:23;;;;;;;2.60;1.13;;;15.70;99.90;;;;;;4992679;28;20031;-69
2022/10/04 12:21:33;;;;;;;1.80;1.10;;;15.70;99.90;;;;;;4989580;28;20043;-65
2022/10/04 12:24:18;;;;;;;2.25;1.08;;;15.70;99.90;;;;;;4985871;28;20023;-67
2022/10/04 12:27:03;;;;;;;3.25;1.23;;;15.70;99.90;;;;;;4987239;28;20039;-68
2022/10/04 12:29:59;;;;;;;1.73;1.25;;;15.70;99.90;;;;;;4987847;28;20018;-67
2022/10/04 12:32:42;;;;;;;1.40;0.90;;;15.70;99.90;;;;;;4985762;28;20058;-67
2022/10/04 12:35:31;;;;;;;1.25;0.70;;;15.70;99.90;;;;;;4986002;28;20019;-65
2022/10/04 12:38:10;;;;;;;4.95;1.10;;;15.60;99.90;;;;;;4987337;28;20382;-66
2022/10/04 12:40:52;;;;;;;4.13;0.90;;;15.60;99.90;;;;;;4987139;28;20023;-65
2022/10/04 12:43:20;;;;;;;1.58;0.93;;;15.70;99.90;;;;;;4987336;28;20023;-65
2022/10/04 12:46:07;;;;;;;2.58;0.90;;;15.70;99.90;;;;;;4985418;28;20137;-67
2022/10/04 12:48:47;;;;;;;2.33;0.73;;;15.70;99.90;;;;;;4986626;28;20027;-66
2022/10/04 12:51:36;;;;;;;1.70;1.00;;;15.70;99.90;;;;;;4986508;28;20026;-63
2022/10/04 12:54:17;;;;;;;4.78;0.88;;;15.60;99.90;;;;;;4987521;28;20023;-67
2022/10/04 12:57:05;;;;;;;4.55;1.08;;;15.60;99.90;;;;;;4987473;28;20033;-67
2022/10/04 12:59:40;;;;;;;2.95;0.90;;;15.70;99.90;;;;;;4986118;28;20027;-67
2022/10/04 13:02:23;;;;;;;1.77;0.70;;;15.60;99.90;;;;;;4985475;28;20023;-63
2022/10/04 13:04:58;;;;;;;1.13;0.70;;;15.70;99.90;;;;;;4985573;28;20120;-64
2022/10/04 13:07:53;;;;;;;2.20;0.70;;;15.60;99.90;;;;;;4985349;28;20503;-65
2022/10/04 13:10:23;;;;;;;1.63;0.68;;;15.70;99.90;;;;;;4987408;28;20053;-63
2022/10/04 13:13:24;;;;;;;3.42;1.13;;;15.70;99.90;;;;;;4996213;28;20034;-65
2022/10/04 13:16:10;;;;;;;1.67;0.85;;;15.70;99.90;;;;;;4996078;28;20027;-62
2022/10/04 13:18:57;;;;;;;0.73;0.57;;;15.70;99.90;;;;;;4996196;28;20050;-64
2022/10/04 13:22:06;;;;;;;2.75;0.60;;;15.70;99.90;;;;;;4996049;28;20053;-67
2022/10/04 13:24:54;;;;;;;2.53;0.63;;;15.70;99.90;;;;;;4995852;28;20033;-66
2022/10/04 13:27:40;;;;;;;1.67;0.80;;;15.70;99.90;;;;;;4991715;28;20038;-65
2022/10/04 13:30:31;;;;;;;3.40;0.80;;;15.60;99.90;;;;;;4995612;28;20053;-66
2022/10/04 13:33:22;;;;;;;4.75;0.57;;;15.60;99.90;;;;;;4995668;28;20031;-65
2022/10/04 13:36:16;;;;;;;2.78;0.73;;;15.60;99.90;;;;;;4995691;28;20364;-64
2022/10/04 13:38:58;;;;;;;3.35;0.93;;;15.60;99.90;;;;;;4995631;28;20026;-64
2022/10/04 13:41:40;;;;;;;3.47;1.00;;;15.60;99.90;;;;;;4995781;28;20030;-63
2022/10/04 13:44:48;;;;;;;0.88;0.47;;;15.60;99.90;;;;;;4995520;28;20036;-64
2022/10/04 13:47:18;;;;;;;5.60;0.70;;;15.50;99.90;;;;;;4995352;28;20038;-64
2022/10/04 13:50:03;;;;;;;3.78;0.95;;;15.40;99.90;;;;;;4995529;28;20030;-66
2022/10/04 13:58:34;;;;;;;2.15;0.98;;;15.30;99.90;;;;;;4994743;28;20084;-62
2022/10/04 14:01:39;;;;;;;1.60;0.60;;;15.30;99.90;;;;;;4995449;28;20037;-63
2022/10/04 14:04:43;;;;;;;4.38;1.30;;;15.30;99.90;;;;;;4985082;28;20121;-64
2022/10/04 14:07:34;;;;;;;0.93;0.40;;;15.30;99.90;;;;;;4995507;28;20031;-63
2022/10/04 14:10:23;;;;;;;1.52;0.60;;;15.20;99.90;;;;;;4995426;28;20031;-63
2022/10/04 14:13:05;;;;;;;1.10;0.70;;;15.20;99.90;;;;;;4995384;28;20030;-63
2022/10/04 14:16:19;;;;;;;3.45;0.63;;;15.20;99.90;;;;;;4995384;28;20022;-63
2022/10/04 14:19:20;;;;;;;2.00;0.77;;;15.20;99.90;;;;;;4995125;28;20479;-64
2022/10/04 14:22:08;;;;;;;1.25;0.57;;;15.20;99.90;;;;;;4972872;28;20038;-63
2022/10/04 14:24:57;;;;;;;0.90;0.45;;;15.10;99.90;;;;;;4995146;28;20030;-64